Terminal Aerodrome Forecast
Issued by NWS Binghamton, NY

Home | Current Version | Previous Version | Text Only | Print | Product List | Glossary On
Versions: 1 2 3 4 5 6 7 8 9 10 11 12 13 14 15 16 17 18
033
FTUS41 KBGM 192324
TAFAVP
TAF
KAVP 192324Z 2000/2024 30014G25KT P6SM -SHSN OVC040
     FM200300 29011G19KT P6SM BKN050
     FM201500 26012KT P6SM SCT050=

USA.gov is the U.S. government's official web portal to all federal, state and local government web resources and services.